createdAt,value
2018-06-13T00:00:54.688Z,17.06
2018-06-13T00:02:04.511Z,17.05
2018-06-13T00:03:08.472Z,17.04
2018-06-13T00:04:12.733Z,17.03
2018-06-13T00:05:16.950Z,17.04
2018-06-13T00:06:21.236Z,17.03
2018-06-13T00:07:25.521Z,17.02
2018-06-13T00:08:29.814Z,17.02
2018-06-13T00:09:34.152Z,17.02
2018-06-13T00:10:38.438Z,17.02
2018-06-13T00:11:42.833Z,17.00
2018-06-13T00:12:47.379Z,17.01
2018-06-13T00:13:51.839Z,17.00
2018-06-13T00:14:57.170Z,16.99
2018-06-13T00:16:01.629Z,16.98
2018-06-13T00:17:05.874Z,16.98
2018-06-13T00:18:10.181Z,17.00
2018-06-13T00:19:14.427Z,17.00
2018-06-13T00:20:18.627Z,17.01
2018-06-13T00:21:22.830Z,17.00
2018-06-13T00:22:27.371Z,17.01
2018-06-13T00:23:31.682Z,17.00
2018-06-13T00:24:35.912Z,17.00
2018-06-13T00:25:40.430Z,17.00
2018-06-13T00:26:44.683Z,16.99
2018-06-13T00:27:49.128Z,16.99
2018-06-13T00:28:53.625Z,16.98
2018-06-13T00:29:57.820Z,16.98
2018-06-13T00:31:02.100Z,16.96
2018-06-13T00:32:06.594Z,16.95
2018-06-13T00:33:10.847Z,16.95
2018-06-13T00:34:15.121Z,16.94
2018-06-13T00:35:19.464Z,16.92
2018-06-13T00:36:23.707Z,16.91
2018-06-13T00:37:28.075Z,16.90
2018-06-13T00:38:32.537Z,16.89
2018-06-13T00:39:36.916Z,16.89
2018-06-13T00:40:41.145Z,16.88
2018-06-13T00:41:45.485Z,16.87
2018-06-13T00:42:49.786Z,16.86
2018-06-13T00:43:54.052Z,16.84
2018-06-13T00:44:58.375Z,16.83
2018-06-13T00:46:02.820Z,16.83
2018-06-13T00:47:07.646Z,16.82
2018-06-13T00:48:11.853Z,16.82
2018-06-13T00:49:16.036Z,16.81
2018-06-13T00:50:20.263Z,16.80
2018-06-13T00:51:24.524Z,16.81
2018-06-13T00:52:28.908Z,16.82
2018-06-13T00:53:33.133Z,16.82
2018-06-13T00:54:37.375Z,16.83
2018-06-13T00:55:52.885Z,16.82
2018-06-13T00:56:57.250Z,16.80
2018-06-13T00:58:01.759Z,16.80
2018-06-13T00:59:06.017Z,16.80
2018-06-13T01:00:10.287Z,16.80
2018-06-13T01:01:14.563Z,16.82
2018-06-13T01:02:18.821Z,16.82
2018-06-13T01:03:23.077Z,16.84
2018-06-13T01:04:27.257Z,16.85
2018-06-13T01:05:32.171Z,16.86
2018-06-13T01:06:36.491Z,16.87
2018-06-13T01:07:40.770Z,16.87
2018-06-13T01:08:45.040Z,16.87
2018-06-13T01:09:49.527Z,16.88
2018-06-13T01:10:53.807Z,16.87
2018-06-13T01:11:58.157Z,16.87
2018-06-13T01:13:02.417Z,16.87
2018-06-13T01:14:06.633Z,16.88
2018-06-13T01:15:11.535Z,16.88
2018-06-13T01:16:15.899Z,16.89
2018-06-13T01:17:20.316Z,16.88
2018-06-13T01:18:24.547Z,16.89
2018-06-13T01:19:28.941Z,16.89
2018-06-13T01:20:33.152Z,16.89
2018-06-13T01:21:37.393Z,16.89
2018-06-13T01:22:41.739Z,16.91
2018-06-13T01:23:46.151Z,16.91
2018-06-13T01:24:50.367Z,16.91
2018-06-13T01:25:54.950Z,16.90
2018-06-13T01:26:59.305Z,16.91
2018-06-13T01:28:03.527Z,16.92
2018-06-13T01:29:07.924Z,16.93
2018-06-13T01:30:12.370Z,16.94
2018-06-13T01:31:16.810Z,16.95
2018-06-13T01:32:21.056Z,16.97
2018-06-13T01:33:25.293Z,16.98
2018-06-13T01:34:29.615Z,16.98
2018-06-13T01:35:34.077Z,16.99
2018-06-13T01:36:38.401Z,17.00
2018-06-13T01:37:42.626Z,17.00
2018-06-13T01:38:47.085Z,17.02
2018-06-13T01:39:51.397Z,17.02
2018-06-13T01:40:55.712Z,17.04
2018-06-13T01:42:00.201Z,17.04
2018-06-13T01:43:04.488Z,17.05
2018-06-13T01:44:09.412Z,17.05
2018-06-13T01:45:13.669Z,17.06
2018-06-13T01:46:17.886Z,17.06
2018-06-13T01:47:22.113Z,17.04
2018-06-13T01:48:26.372Z,17.05
2018-06-13T01:49:30.832Z,17.07
2018-06-13T01:50:35.056Z,17.06
2018-06-13T01:51:39.329Z,17.07
2018-06-13T01:52:43.696Z,17.08
2018-06-13T01:53:47.947Z,17.08
2018-06-13T01:54:52.517Z,17.08
2018-06-13T01:55:56.931Z,17.08
2018-06-13T01:57:01.570Z,17.10
2018-06-13T01:58:05.749Z,17.09
2018-06-13T01:59:10.010Z,17.10
2018-06-13T02:00:14.496Z,17.10
2018-06-13T02:01:18.716Z,17.09
2018-06-13T02:02:23.046Z,17.10
2018-06-13T02:03:27.263Z,17.10
2018-06-13T02:04:31.583Z,17.09
2018-06-13T02:05:35.887Z,17.09
2018-06-13T02:06:40.263Z,17.10
2018-06-13T02:07:45.214Z,17.10
2018-06-13T02:08:49.527Z,17.12
2018-06-13T02:09:53.715Z,17.11
2018-06-13T02:10:58.076Z,17.10
2018-06-13T02:12:02.579Z,17.11
2018-06-13T02:13:07.022Z,17.11
2018-06-13T02:14:11.304Z,17.11
2018-06-13T02:15:15.785Z,17.11
2018-06-13T02:16:20.066Z,17.11
2018-06-13T02:17:24.432Z,17.11
2018-06-13T02:18:28.894Z,17.08
2018-06-13T02:19:33.458Z,17.07
2018-06-13T02:20:37.668Z,17.05
2018-06-13T02:21:42.090Z,17.03
2018-06-13T02:22:46.366Z,17.02
2018-06-13T02:23:50.692Z,17.03
2018-06-13T02:24:54.912Z,17.03
2018-06-13T02:25:59.577Z,17.04
2018-06-13T02:27:04.195Z,17.03
2018-06-13T02:28:08.456Z,17.04
2018-06-13T02:29:12.788Z,17.04
2018-06-13T02:30:17.063Z,17.06
2018-06-13T02:31:21.362Z,17.05
2018-06-13T02:32:25.749Z,17.05
2018-06-13T02:33:29.943Z,17.04
2018-06-13T02:34:34.290Z,17.04
2018-06-13T02:35:38.745Z,17.02
2018-06-13T02:36:42.983Z,17.01
2018-06-13T02:37:47.242Z,16.98
2018-06-13T02:38:51.561Z,16.96
2018-06-13T02:39:55.899Z,16.96
2018-06-13T02:41:00.635Z,16.97
2018-06-13T02:42:05.104Z,16.98
2018-06-13T02:43:09.432Z,16.97
2018-06-13T02:44:13.693Z,16.98
2018-06-13T02:45:17.977Z,17.00
2018-06-13T02:46:22.404Z,16.98
2018-06-13T02:47:26.737Z,16.99
2018-06-13T02:48:31.076Z,16.99
2018-06-13T02:49:35.328Z,17.00
2018-06-13T02:50:39.640Z,17.01
2018-06-13T02:51:44.032Z,17.00
2018-06-13T02:52:48.515Z,17.01
2018-06-13T02:53:52.820Z,17.00
2018-06-13T02:54:57.411Z,17.01
2018-06-13T02:56:02.034Z,17.00
2018-06-13T02:57:06.614Z,16.99
2018-06-13T02:58:10.973Z,16.98
2018-06-13T02:59:15.492Z,16.98
2018-06-13T03:00:19.777Z,16.98
2018-06-13T03:01:24.176Z,16.97
2018-06-13T03:02:28.501Z,16.96
2018-06-13T03:03:32.873Z,16.96
2018-06-13T03:04:37.284Z,16.96
2018-06-13T03:05:41.796Z,16.98
2018-06-13T03:06:46.025Z,16.96
2018-06-13T03:07:50.282Z,16.96
2018-06-13T03:08:54.503Z,16.96
2018-06-13T03:09:59.040Z,16.96
2018-06-13T03:11:03.305Z,16.96
2018-06-13T03:12:07.576Z,16.95
2018-06-13T03:13:11.993Z,16.95
2018-06-13T03:14:16.320Z,16.96
2018-06-13T03:15:20.880Z,16.98
2018-06-13T03:16:25.196Z,16.98
2018-06-13T03:17:29.649Z,16.99
2018-06-13T03:18:34.160Z,16.99
2018-06-13T03:19:38.444Z,16.99
2018-06-13T03:20:42.854Z,17.00
2018-06-13T03:21:47.156Z,16.99
2018-06-13T03:22:51.437Z,16.99
2018-06-13T03:23:56.100Z,16.99
2018-06-13T03:25:00.373Z,16.99
2018-06-13T03:26:05.182Z,16.98
2018-06-13T03:27:09.423Z,16.99
2018-06-13T03:28:13.707Z,16.97
2018-06-13T03:29:18.098Z,16.97
2018-06-13T03:30:22.462Z,16.98
2018-06-13T03:31:26.840Z,16.98
2018-06-13T03:32:31.154Z,16.99
2018-06-13T03:33:35.419Z,16.98
2018-06-13T03:34:39.773Z,16.98
2018-06-13T03:35:43.996Z,16.97
2018-06-13T03:36:48.324Z,16.97
2018-06-13T03:37:52.575Z,16.96
2018-06-13T03:38:56.795Z,16.96
2018-06-13T03:40:01.060Z,16.96
2018-06-13T03:41:05.979Z,16.95
2018-06-13T03:42:10.558Z,16.95
2018-06-13T03:43:15.047Z,16.96
2018-06-13T03:44:19.309Z,16.95
2018-06-13T03:45:23.726Z,16.96
2018-06-13T03:46:27.957Z,16.98
2018-06-13T03:47:32.263Z,16.98
2018-06-13T03:48:36.581Z,16.98
2018-06-13T03:49:41.339Z,16.98
2018-06-13T03:50:45.596Z,16.99
2018-06-13T03:51:49.825Z,16.98
2018-06-13T03:52:54.255Z,16.99
2018-06-13T03:53:58.472Z,16.98
2018-06-13T03:55:02.797Z,16.99
2018-06-13T03:56:07.176Z,17.00
2018-06-13T03:57:11.406Z,17.00
2018-06-13T03:58:16.097Z,17.01
2018-06-13T03:59:20.401Z,17.01
2018-06-13T04:00:24.699Z,17.01
2018-06-13T04:01:29.309Z,17.01
2018-06-13T04:02:33.712Z,17.02
2018-06-13T04:03:38.106Z,17.02
2018-06-13T04:04:42.636Z,17.03
2018-06-13T04:05:46.955Z,17.02
2018-06-13T04:06:51.752Z,17.02
2018-06-13T04:07:56.249Z,17.02
2018-06-13T04:09:00.689Z,17.02
2018-06-13T04:10:05.143Z,17.03
2018-06-13T04:11:09.780Z,17.05
2018-06-13T04:12:14.120Z,17.05
2018-06-13T04:13:18.469Z,17.06
2018-06-13T04:14:23.028Z,17.06
2018-06-13T04:15:27.870Z,17.05
2018-06-13T04:16:32.118Z,17.07
2018-06-13T04:17:36.761Z,17.09
2018-06-13T04:18:41.030Z,17.07
2018-06-13T04:19:45.269Z,17.08
2018-06-13T04:20:49.524Z,17.09
2018-06-13T04:21:53.766Z,17.10
2018-06-13T04:22:58.035Z,17.10
2018-06-13T04:24:02.722Z,17.10
2018-06-13T04:25:07.034Z,17.09
2018-06-13T04:26:11.274Z,17.09
2018-06-13T04:27:15.649Z,17.10
2018-06-13T04:28:20.129Z,17.09
2018-06-13T04:29:24.492Z,17.11
2018-06-13T04:30:28.747Z,17.12
2018-06-13T04:31:33.216Z,17.12
2018-06-13T04:32:37.488Z,17.14
2018-06-13T04:33:41.690Z,17.15
2018-06-13T04:34:45.990Z,17.15
2018-06-13T04:35:50.310Z,17.16
2018-06-13T04:36:54.724Z,17.17
2018-06-13T04:37:58.977Z,17.19
2018-06-13T04:39:03.576Z,17.21
2018-06-13T04:40:08.007Z,17.22
2018-06-13T04:41:12.348Z,17.25
2018-06-13T04:42:16.618Z,17.26
2018-06-13T04:43:21.035Z,17.29
2018-06-13T04:44:25.443Z,17.32
2018-06-13T04:45:29.847Z,17.35
2018-06-13T04:46:34.345Z,17.36
2018-06-13T04:47:38.723Z,17.38
2018-06-13T04:48:42.949Z,17.41
2018-06-13T04:49:47.163Z,17.43
2018-06-13T04:50:51.397Z,17.44
2018-06-13T04:51:55.733Z,17.46
2018-06-13T04:53:00.163Z,17.47
2018-06-13T04:54:04.628Z,17.45
2018-06-13T04:55:08.958Z,17.45
2018-06-13T04:56:13.284Z,17.46
2018-06-13T04:57:17.748Z,17.47
2018-06-13T04:58:22.108Z,17.50
2018-06-13T04:59:26.492Z,17.50
2018-06-13T05:00:30.967Z,17.51
2018-06-13T05:01:35.307Z,17.53
2018-06-13T05:02:39.819Z,17.57
2018-06-13T05:03:44.136Z,17.58
2018-06-13T05:04:48.554Z,17.61
2018-06-13T05:05:52.905Z,17.63
2018-06-13T05:06:57.398Z,17.66
2018-06-13T05:08:01.763Z,17.70
2018-06-13T05:09:07.811Z,17.71
2018-06-13T05:10:12.067Z,17.73
2018-06-13T05:11:16.481Z,17.72
2018-06-13T05:12:21.208Z,17.70
2018-06-13T05:13:25.613Z,17.67
2018-06-13T05:14:31.459Z,17.65
2018-06-13T05:15:36.207Z,17.65
2018-06-13T05:16:40.565Z,17.64
2018-06-13T05:17:45.214Z,17.60
2018-06-13T05:18:49.694Z,17.59
2018-06-13T05:19:53.916Z,17.57
2018-06-13T05:20:58.467Z,17.56
2018-06-13T05:22:02.903Z,17.57
2018-06-13T05:23:07.291Z,17.56
2018-06-13T05:24:11.634Z,17.56
2018-06-13T05:25:15.893Z,17.55
2018-06-13T05:26:20.149Z,17.56
2018-06-13T05:27:24.904Z,17.55
2018-06-13T05:28:29.331Z,17.55
2018-06-13T05:29:33.878Z,17.54
2018-06-13T05:30:38.266Z,17.54
2018-06-13T05:31:42.664Z,17.53
2018-06-13T05:32:47.101Z,17.55
2018-06-13T05:33:51.644Z,17.56
2018-06-13T05:34:56.435Z,17.57
2018-06-13T05:36:01.133Z,17.55
2018-06-13T05:37:05.920Z,17.54
2018-06-13T05:38:10.414Z,17.53
2018-06-13T05:39:14.752Z,17.53
2018-06-13T05:40:19.552Z,17.53
2018-06-13T05:41:23.886Z,17.53
2018-06-13T05:42:28.255Z,17.55
2018-06-13T05:43:32.481Z,17.56
2018-06-13T05:44:36.799Z,17.59
2018-06-13T05:45:41.538Z,17.59
2018-06-13T05:46:46.132Z,17.60
2018-06-13T05:47:50.769Z,17.61
2018-06-13T05:48:55.413Z,17.61
2018-06-13T05:49:59.682Z,17.61
2018-06-13T05:51:04.121Z,17.61
2018-06-13T05:52:08.529Z,17.60
2018-06-13T05:53:13.078Z,17.58
2018-06-13T05:54:17.766Z,17.58
2018-06-13T05:55:22.185Z,17.58
2018-06-13T05:56:26.691Z,17.59
2018-06-13T05:57:31.095Z,17.61
2018-06-13T05:58:35.340Z,17.66
2018-06-13T05:59:39.842Z,17.66
2018-06-13T06:00:44.555Z,17.68
2018-06-13T06:01:49.139Z,17.71
2018-06-13T06:02:54.005Z,17.74
2018-06-13T06:03:58.426Z,17.76
2018-06-13T06:05:02.852Z,17.79
2018-06-13T06:06:07.117Z,17.80
2018-06-13T06:07:11.402Z,17.81
2018-06-13T06:08:15.693Z,17.83
2018-06-13T06:09:19.937Z,17.83
2018-06-13T06:10:24.325Z,17.87
2018-06-13T06:11:28.647Z,17.91
2018-06-13T06:12:32.993Z,17.94
2018-06-13T06:13:37.328Z,17.96
2018-06-13T06:14:41.555Z,17.97
2018-06-13T06:15:46.270Z,17.98
2018-06-13T06:16:50.579Z,17.98
2018-06-13T06:17:54.900Z,18.00
2018-06-13T06:18:59.152Z,18.00
2018-06-13T06:20:03.347Z,18.01
2018-06-13T06:21:07.737Z,18.03
2018-06-13T06:22:12.152Z,18.03
2018-06-13T06:23:16.441Z,18.04
2018-06-13T06:24:20.683Z,18.05
2018-06-13T06:25:25.203Z,18.06
2018-06-13T06:26:29.534Z,18.08
2018-06-13T06:27:33.962Z,18.10
2018-06-13T06:28:38.155Z,18.14
2018-06-13T06:29:42.379Z,18.15
2018-06-13T06:30:46.669Z,18.16
2018-06-13T06:31:50.929Z,18.18
2018-06-13T06:32:55.195Z,18.20
2018-06-13T06:33:59.560Z,18.19
2018-06-13T06:35:03.898Z,18.21
2018-06-13T06:36:08.380Z,18.23
2018-06-13T06:37:12.730Z,18.27
2018-06-13T06:38:17.555Z,18.30
2018-06-13T06:39:21.877Z,18.34
2018-06-13T06:40:26.590Z,18.37
2018-06-13T06:41:31.025Z,18.40
2018-06-13T06:42:35.480Z,18.40
2018-06-13T06:43:39.745Z,18.42
2018-06-13T06:44:43.977Z,18.43
2018-06-13T06:45:48.638Z,18.46
2018-06-13T06:46:52.976Z,18.49
2018-06-13T06:47:57.195Z,18.51
2018-06-13T06:49:01.696Z,18.57
2018-06-13T06:50:06.043Z,18.59
2018-06-13T06:51:10.483Z,18.64
2018-06-13T06:52:15.022Z,18.67
2018-06-13T06:53:19.548Z,18.66
2018-06-13T06:54:23.713Z,18.65
2018-06-13T06:55:28.080Z,18.61
2018-06-13T06:56:32.241Z,18.61
2018-06-13T06:57:36.433Z,18.61
2018-06-13T06:58:40.615Z,18.60
2018-06-13T06:59:44.742Z,18.59
2018-06-13T07:00:49.123Z,18.57
2018-06-13T07:01:53.637Z,18.56
2018-06-13T07:02:57.816Z,18.58
2018-06-13T07:04:02.184Z,18.57
2018-06-13T07:05:06.327Z,18.53
2018-06-13T07:06:10.617Z,18.47
2018-06-13T07:07:14.891Z,18.46
2018-06-13T07:08:19.288Z,18.45
2018-06-13T07:09:23.444Z,18.45
2018-06-13T07:10:27.619Z,18.44
2018-06-13T07:11:31.816Z,18.43
2018-06-13T07:12:36.052Z,18.42
2018-06-13T07:13:40.234Z,18.44
2018-06-13T07:14:44.377Z,18.46
2018-06-13T07:15:49.021Z,18.46
2018-06-13T07:16:53.266Z,18.48
2018-06-13T07:17:57.455Z,18.51
2018-06-13T07:19:01.769Z,18.55
2018-06-13T07:20:05.976Z,18.60
2018-06-13T07:21:10.465Z,18.64
2018-06-13T07:22:14.764Z,18.68
2018-06-13T07:23:21.878Z,18.71
2018-06-13T07:24:29.134Z,18.75
2018-06-13T07:25:35.978Z,18.79
2018-06-13T07:26:42.926Z,18.78
2018-06-13T07:27:50.116Z,18.76
2018-06-13T07:28:57.282Z,18.73
2018-06-13T07:30:01.750Z,18.69
2018-06-13T07:31:05.557Z,18.67
2018-06-13T07:32:10.156Z,18.65
2018-06-13T07:33:14.419Z,18.65
2018-06-13T07:34:18.593Z,18.64
2018-06-13T07:35:22.900Z,18.63
2018-06-13T07:36:27.111Z,18.62
2018-06-13T07:37:31.316Z,18.62
2018-06-13T07:38:35.807Z,18.62
2018-06-13T07:39:40.093Z,18.57
2018-06-13T07:40:44.592Z,18.55
2018-06-13T07:41:48.900Z,18.53
2018-06-13T07:42:53.131Z,18.53
2018-06-13T07:43:57.331Z,18.52
2018-06-13T07:45:01.583Z,18.54
2018-06-13T07:46:05.879Z,18.55
2018-06-13T07:47:10.287Z,18.55
2018-06-13T07:48:14.439Z,18.57
2018-06-13T07:49:18.595Z,18.58
2018-06-13T07:50:22.793Z,18.61
2018-06-13T07:51:27.102Z,18.62
2018-06-13T07:52:31.367Z,18.61
2018-06-13T07:53:35.995Z,18.59
2018-06-13T07:54:40.247Z,18.58
2018-06-13T07:55:44.435Z,18.57
2018-06-13T07:56:48.682Z,18.55
2018-06-13T07:57:52.893Z,18.50
2018-06-13T07:58:57.188Z,18.49
2018-06-13T08:00:01.479Z,18.48
2018-06-13T08:01:06.132Z,18.50
2018-06-13T08:02:10.695Z,18.54
2018-06-13T08:03:14.900Z,18.55
2018-06-13T08:04:19.120Z,18.55
2018-06-13T08:05:23.372Z,18.54
2018-06-13T08:06:27.629Z,18.54
2018-06-13T08:07:31.988Z,18.55
2018-06-13T08:08:36.173Z,18.57
2018-06-13T08:09:40.431Z,18.59
2018-06-13T08:10:44.801Z,18.65
2018-06-13T08:11:49.224Z,18.69
2018-06-13T08:12:53.437Z,18.75
2018-06-13T08:13:57.618Z,18.78
2018-06-13T08:15:01.910Z,18.80
2018-06-13T08:16:06.568Z,18.78
2018-06-13T08:17:11.183Z,18.80
2018-06-13T08:18:15.408Z,18.81
2018-06-13T08:19:19.661Z,18.84
2018-06-13T08:20:24.079Z,18.84
2018-06-13T08:21:28.276Z,18.83
2018-06-13T08:22:32.496Z,18.82
2018-06-13T08:23:36.740Z,18.79
2018-06-13T08:24:52.184Z,18.75
2018-06-13T08:25:56.567Z,18.71
2018-06-13T08:27:01.064Z,18.69
2018-06-13T08:28:05.461Z,18.67
2018-06-13T08:29:10.151Z,18.68
2018-06-13T08:30:14.455Z,18.70
2018-06-13T08:31:18.676Z,18.74
2018-06-13T08:32:23.032Z,18.76
2018-06-13T08:33:27.508Z,18.80
2018-06-13T08:34:31.777Z,18.84
2018-06-13T08:35:35.999Z,18.88
2018-06-13T08:36:40.156Z,18.91
2018-06-13T08:37:44.536Z,18.95
2018-06-13T08:38:48.717Z,18.98
2018-06-13T08:39:53.017Z,19.04
2018-06-13T08:40:57.427Z,19.06
2018-06-13T08:42:01.832Z,19.06
2018-06-13T08:43:06.059Z,19.08
2018-06-13T08:44:10.244Z,19.08
2018-06-13T08:45:14.451Z,19.06
2018-06-13T08:46:18.781Z,19.05
2018-06-13T08:47:22.992Z,19.04
2018-06-13T08:48:27.959Z,19.04
2018-06-13T08:49:32.205Z,19.05
2018-06-13T08:50:36.396Z,19.08
2018-06-13T08:51:40.579Z,19.10
2018-06-13T08:52:44.827Z,19.13
2018-06-13T08:53:49.053Z,19.16
2018-06-13T08:54:53.573Z,19.19
2018-06-13T08:55:57.740Z,19.20
2018-06-13T08:57:02.115Z,19.20
2018-06-13T08:58:06.432Z,19.21
2018-06-13T08:59:10.684Z,19.21
2018-06-13T09:00:15.144Z,19.22
2018-06-13T09:01:19.324Z,19.21
2018-06-13T09:02:23.515Z,19.23
2018-06-13T09:03:27.724Z,19.19
2018-06-13T09:04:32.242Z,19.19
2018-06-13T09:05:36.408Z,19.18
2018-06-13T09:06:40.609Z,19.16
2018-06-13T09:07:44.965Z,19.15
2018-06-13T09:08:49.295Z,19.15
2018-06-13T09:09:53.607Z,19.13
2018-06-13T09:10:57.895Z,19.10
2018-06-13T09:12:02.220Z,19.09
2018-06-13T09:13:06.478Z,19.07
2018-06-13T09:14:10.858Z,19.06
2018-06-13T09:15:15.558Z,19.06
2018-06-13T09:16:20.280Z,19.06
2018-06-13T09:17:24.989Z,19.05
2018-06-13T09:18:29.423Z,19.04
2018-06-13T09:19:33.653Z,19.04
2018-06-13T09:20:38.126Z,19.04
2018-06-13T09:21:42.409Z,19.04
2018-06-13T09:22:46.634Z,19.06
2018-06-13T09:23:50.878Z,19.08
2018-06-13T09:24:55.099Z,19.10
2018-06-13T09:25:59.384Z,19.14
2018-06-13T09:27:03.623Z,19.17
2018-06-13T09:28:07.912Z,19.19
2018-06-13T09:29:12.322Z,19.21
2018-06-13T09:30:16.605Z,19.22
2018-06-13T09:31:20.920Z,19.19
2018-06-13T09:32:25.203Z,19.17
2018-06-13T09:33:29.555Z,19.16
2018-06-13T09:34:33.756Z,19.16
2018-06-13T09:35:38.284Z,19.16
2018-06-13T09:36:42.523Z,19.15
2018-06-13T09:37:46.757Z,19.16
2018-06-13T09:38:51.591Z,19.16
2018-06-13T09:39:56.165Z,19.16
2018-06-13T09:41:00.616Z,19.15
2018-06-13T09:42:05.083Z,19.14
2018-06-13T09:43:09.430Z,19.13
2018-06-13T09:44:14.044Z,19.10
2018-06-13T09:45:18.396Z,19.08
2018-06-13T09:46:22.623Z,19.07
2018-06-13T09:47:27.203Z,19.10
2018-06-13T09:48:31.955Z,19.16
2018-06-13T09:49:36.171Z,19.20
2018-06-13T09:50:40.383Z,19.27
2018-06-13T09:51:44.889Z,19.33
2018-06-13T09:52:49.570Z,19.42
2018-06-13T09:53:53.903Z,19.48
2018-06-13T09:54:58.056Z,19.53
2018-06-13T09:56:02.772Z,19.57
2018-06-13T09:57:07.160Z,19.61
2018-06-13T09:58:11.477Z,19.65
2018-06-13T09:59:19.340Z,19.67
2018-06-13T10:00:28.994Z,19.72
2018-06-13T10:01:38.472Z,19.75
2018-06-13T10:02:42.637Z,19.80
2018-06-13T10:03:47.345Z,19.83
2018-06-13T10:04:52.140Z,19.87
2018-06-13T10:05:57.035Z,19.93
2018-06-13T10:07:01.252Z,19.98
2018-06-13T10:08:05.724Z,20.05
2018-06-13T10:09:10.211Z,20.08
2018-06-13T10:10:14.488Z,20.11
2018-06-13T10:11:18.761Z,20.16
2018-06-13T10:12:23.145Z,20.18
2018-06-13T10:13:27.406Z,20.19
2018-06-13T10:14:31.623Z,20.20
2018-06-13T10:15:36.031Z,20.19
2018-06-13T10:16:40.956Z,20.14
2018-06-13T10:17:45.158Z,20.13
2018-06-13T10:18:49.401Z,20.10
2018-06-13T10:19:53.667Z,20.07
2018-06-13T10:20:57.905Z,20.03
2018-06-13T10:22:02.174Z,19.99
2018-06-13T10:23:06.667Z,19.94
2018-06-13T10:24:10.991Z,19.90
2018-06-13T10:25:15.269Z,19.85
2018-06-13T10:26:19.656Z,19.81
2018-06-13T10:27:30.264Z,19.80
2018-06-13T10:28:34.498Z,19.75
2018-06-13T10:29:38.713Z,19.71
2018-06-13T10:30:42.919Z,19.70
2018-06-13T10:31:47.336Z,19.67
2018-06-13T10:32:51.551Z,19.63
2018-06-13T10:33:55.761Z,19.61
2018-06-13T10:35:00.319Z,19.59
2018-06-13T10:36:04.770Z,19.56
2018-06-13T10:37:08.995Z,19.54
2018-06-13T10:38:13.184Z,19.51
2018-06-13T10:39:17.435Z,19.49
2018-06-13T10:40:21.652Z,19.48
2018-06-13T10:41:25.995Z,19.44
2018-06-13T10:42:30.355Z,19.41
2018-06-13T10:43:34.693Z,19.39
2018-06-13T10:44:38.895Z,19.36
2018-06-13T10:45:43.296Z,19.36
2018-06-13T10:46:47.471Z,19.33
2018-06-13T10:47:51.753Z,19.32
2018-06-13T10:48:56.067Z,19.31
2018-06-13T10:50:00.523Z,19.32
2018-06-13T10:51:04.828Z,19.32
2018-06-13T10:52:09.460Z,19.33
2018-06-13T10:53:13.713Z,19.33
2018-06-13T10:54:17.884Z,19.35
2018-06-13T10:55:22.091Z,19.34
2018-06-13T10:56:26.311Z,19.33
2018-06-13T10:57:30.608Z,19.33
2018-06-13T10:58:34.915Z,19.31
2018-06-13T10:59:39.138Z,19.32
2018-06-13T11:00:43.694Z,19.31
2018-06-13T11:01:47.964Z,19.33
2018-06-13T11:02:52.159Z,19.32
2018-06-13T11:03:56.437Z,19.33
2018-06-13T11:05:00.719Z,19.34
2018-06-13T11:06:05.108Z,19.39
2018-06-13T11:07:09.657Z,19.44
2018-06-13T11:08:14.006Z,19.48
2018-06-13T11:09:18.239Z,19.51
2018-06-13T11:10:22.808Z,19.58
2018-06-13T11:11:27.265Z,19.64
2018-06-13T11:12:31.441Z,19.71
2018-06-13T11:13:35.719Z,19.77
2018-06-13T11:14:39.899Z,19.87
2018-06-13T11:15:44.103Z,19.93
2018-06-13T11:16:49.203Z,19.98
2018-06-13T11:17:53.776Z,20.04
2018-06-13T11:18:58.484Z,20.09
2018-06-13T11:20:02.887Z,20.12
2018-06-13T11:21:07.254Z,20.13
2018-06-13T11:22:11.591Z,20.13
2018-06-13T11:23:16.508Z,20.12
2018-06-13T11:24:22.787Z,20.10
2018-06-13T11:25:27.201Z,20.08
2018-06-13T11:26:31.805Z,20.05
2018-06-13T11:27:36.020Z,20.03
2018-06-13T11:28:40.274Z,20.01
2018-06-13T11:29:44.560Z,19.98
2018-06-13T11:30:48.904Z,19.94
2018-06-13T11:31:53.833Z,19.88
2018-06-13T11:32:58.224Z,19.80
2018-06-13T11:34:02.721Z,19.72
2018-06-13T11:35:07.616Z,19.66
2018-06-13T11:36:12.025Z,19.62
2018-06-13T11:37:16.503Z,19.60
2018-06-13T11:38:20.953Z,19.58
2018-06-13T11:39:25.269Z,19.57
2018-06-13T11:40:29.664Z,19.59
2018-06-13T11:41:33.911Z,19.61
2018-06-13T11:42:38.527Z,19.62
2018-06-13T11:43:42.975Z,19.66
2018-06-13T11:44:47.348Z,19.65
2018-06-13T11:45:51.809Z,19.64
2018-06-13T11:46:56.643Z,19.63
2018-06-13T11:48:00.928Z,19.65
2018-06-13T11:49:05.436Z,19.69
2018-06-13T11:50:09.739Z,19.74
2018-06-13T11:51:14.348Z,19.80
2018-06-13T11:52:18.815Z,19.85
2018-06-13T11:53:23.096Z,19.90
2018-06-13T11:54:27.488Z,19.95
2018-06-13T11:55:31.880Z,20.03
2018-06-13T11:56:36.308Z,20.12
2018-06-13T11:57:40.548Z,20.23
2018-06-13T11:58:44.787Z,20.34
2018-06-13T11:59:49.076Z,20.40
2018-06-13T12:00:53.435Z,20.46
2018-06-13T12:01:57.775Z,20.48
2018-06-13T12:03:02.128Z,20.48
2018-06-13T12:04:06.539Z,20.50
2018-06-13T12:05:10.741Z,20.50
2018-06-13T12:06:15.244Z,20.51
2018-06-13T12:07:19.509Z,20.53
2018-06-13T12:08:23.749Z,20.54
2018-06-13T12:09:28.576Z,20.54
2018-06-13T12:10:32.805Z,20.54
2018-06-13T12:11:37.332Z,20.53
2018-06-13T12:12:41.547Z,20.54
2018-06-13T12:13:45.812Z,20.56
2018-06-13T12:14:50.591Z,20.57
2018-06-13T12:15:54.869Z,20.60
2018-06-13T12:16:59.669Z,20.63
2018-06-13T12:18:04.082Z,20.66
2018-06-13T12:19:08.720Z,20.70
2018-06-13T12:20:12.999Z,20.73
2018-06-13T12:21:17.446Z,20.75
2018-06-13T12:22:21.886Z,20.73
2018-06-13T12:23:26.119Z,20.71
2018-06-13T12:24:30.541Z,20.70
2018-06-13T12:25:34.835Z,20.67
2018-06-13T12:26:39.139Z,20.64
2018-06-13T12:27:43.419Z,20.62
2018-06-13T12:28:47.708Z,20.60
2018-06-13T12:29:52.270Z,20.53
2018-06-13T12:30:56.603Z,20.52
2018-06-13T12:32:00.859Z,20.50
2018-06-13T12:33:05.319Z,20.49
2018-06-13T12:34:09.732Z,20.48
2018-06-13T12:35:14.057Z,20.50
2018-06-13T12:36:18.339Z,20.53
2018-06-13T12:37:22.588Z,20.59
2018-06-13T12:38:26.919Z,20.63
2018-06-13T12:39:31.548Z,20.69
2018-06-13T12:40:35.814Z,20.74
2018-06-13T12:41:40.285Z,20.84
2018-06-13T12:42:44.602Z,20.92
2018-06-13T12:43:48.807Z,20.96
2018-06-13T12:44:53.239Z,20.98
2018-06-13T12:46:03.754Z,21.01
2018-06-13T12:47:08.128Z,21.03
2018-06-13T12:48:12.460Z,21.04
2018-06-13T12:49:16.861Z,21.05
2018-06-13T12:50:21.128Z,21.04
2018-06-13T12:51:25.348Z,21.02
2018-06-13T12:52:29.578Z,21.01
2018-06-13T12:53:33.832Z,21.02
2018-06-13T12:54:38.601Z,21.06
2018-06-13T12:55:42.921Z,21.13
2018-06-13T12:56:47.144Z,21.19
2018-06-13T12:57:51.355Z,21.24
2018-06-13T12:58:55.877Z,21.25
2018-06-13T12:59:59.990Z,21.27
2018-06-13T13:01:04.261Z,21.27
2018-06-13T13:02:08.529Z,21.30
2018-06-13T13:03:13.228Z,21.28
2018-06-13T13:04:17.611Z,21.29
2018-06-13T13:05:21.866Z,21.27
2018-06-13T13:06:26.335Z,21.26
2018-06-13T13:07:30.550Z,21.24
2018-06-13T13:08:35.001Z,21.23
2018-06-13T13:09:39.256Z,21.20
2018-06-13T13:10:43.533Z,21.18
2018-06-13T13:11:48.353Z,21.17
2018-06-13T13:12:52.851Z,21.18
2018-06-13T13:13:57.511Z,21.21
2018-06-13T13:15:02.191Z,21.25
2018-06-13T13:16:07.192Z,21.28
2018-06-13T13:17:12.027Z,21.35
2018-06-13T13:18:16.408Z,21.40
2018-06-13T13:19:21.461Z,21.42
2018-06-13T13:20:25.841Z,21.44
2018-06-13T13:21:30.315Z,21.46
2018-06-13T13:22:34.812Z,21.45
2018-06-13T13:23:39.168Z,21.48
2018-06-13T13:24:43.404Z,21.51
2018-06-13T13:25:47.631Z,21.55
2018-06-13T13:26:52.029Z,21.58
2018-06-13T13:27:56.306Z,21.61
2018-06-13T13:29:00.627Z,21.63
2018-06-13T13:30:05.016Z,21.65
2018-06-13T13:31:09.206Z,21.67
2018-06-13T13:32:13.399Z,21.70
2018-06-13T13:33:17.855Z,21.73
2018-06-13T13:34:22.213Z,21.76
2018-06-13T13:35:26.609Z,21.78
2018-06-13T13:36:30.979Z,21.79
2018-06-13T13:37:35.214Z,21.78
2018-06-13T13:38:39.650Z,21.78
2018-06-13T13:39:43.818Z,21.77
2018-06-13T13:40:48.073Z,21.74
2018-06-13T13:41:52.547Z,21.70
2018-06-13T13:42:56.754Z,21.65
2018-06-13T13:44:01.232Z,21.60
2018-06-13T13:45:06.298Z,21.54
2018-06-13T13:46:10.597Z,21.49
2018-06-13T13:47:15.105Z,21.45
2018-06-13T13:48:19.357Z,21.39
2018-06-13T13:49:23.534Z,21.35
2018-06-13T13:50:27.830Z,21.34